PWSweather.com
Personal Weather Stations
Station Observations
KMAMEDFI2
Medfield, MA 02052

Medfield, MA 02052

Lat: 42.1900822, Lon: -71.3296889

Elevation: 138

Station Type: Rainwise WS MK-III

http://www.medfieldweather.com

Latest ConditionsUpdated 7:30:00 AM EDT Saturday, Aug 27, 2016
Currently Today's Max Today's Min Today's Average
Temperature 62.3°F16.8°C 70.3°F21.3°C 60.9°F16.1°C 64.1°F17.8°C
Dew Point 61.8°F16.6°C 66.1°F18.9°C 60.4°F15.8°C 62.8°F17.1°C
Winds Calm Calm 2.7 mph WNW4.3 kmh WNW - 0.1 mph 0.2 kmh
Wind Gusts -- 2.7 mph4.3 kmh - -
Humidity 98% 98% 84% 96%
Pressure 30.17 in1021.7 mb 30.17 in1021.7 mb 30.09 in1019.0 mb -
Hour Temp Dew Point Humidity Winds Wind Gusts Pressure Precip Precip Rate Daily Precip Total
07:30 AM 62.3°F16.8°C 61.8°F16.6°C 98% Calm Calm -- 30.17 in1021.7 mb - 0.00 in0.0 mm 0.00 in0.0 mm
07:20 AM 61.6°F16.4°C 61.0°F16.1°C 98% Calm Calm -- 30.17 in1021.7 mb - 0.00 in0.0 mm 0.00 in0.0 mm
07:10 AM 61.3°F16.3°C 60.7°F15.9°C 98% Calm Calm -- 30.17 in1021.7 mb - 0.00 in0.0 mm 0.00 in0.0 mm
07:00 AM 61.1°F16.2°C 60.5°F15.8°C 98% Calm Calm -- 30.16 in1021.3 mb - 0.00 in0.0 mm 0.00 in0.0 mm
06:50 AM 60.9°F16.1°C 60.4°F15.8°C 98% Calm Calm -- 30.16 in1021.3 mb - 0.00 in0.0 mm 0.00 in0.0 mm
06:40 AM 61.1°F16.2°C 60.5°F15.8°C 98% 0.2 mph WSW0.3 kmh WSW -- 30.15 in1021.0 mb - 0.00 in0.0 mm 0.00 in0.0 mm
06:30 AM 61.0°F16.1°C 60.4°F15.8°C 98% Calm Calm -- 30.15 in1021.0 mb - 0.00 in0.0 mm 0.00 in0.0 mm
06:20 AM 61.0°F16.1°C 60.5°F15.8°C 98% Calm Calm -- 30.14 in1020.7 mb - 0.00 in0.0 mm 0.00 in0.0 mm
06:10 AM 61.2°F16.2°C 60.7°F15.9°C 98% Calm Calm -- 30.14 in1020.7 mb - 0.00 in0.0 mm 0.00 in0.0 mm
06:00 AM 61.5°F16.4°C 60.9°F16.1°C 98% Calm Calm -- 30.13 in1020.3 mb - 0.00 in0.0 mm 0.00 in0.0 mm
05:50 AM 61.7°F16.5°C 61.1°F16.2°C 98% Calm Calm 1.3 mph2.1 kmh 30.13 in1020.3 mb - 0.00 in0.0 mm 0.00 in0.0 mm
05:40 AM 61.5°F16.4°C 60.9°F16.1°C 98% Calm Calm -- 30.13 in1020.3 mb - 0.00 in0.0 mm 0.00 in0.0 mm
05:30 AM 61.8°F16.6°C 61.2°F16.2°C 98% Calm Calm -- 30.13 in1020.3 mb - 0.00 in0.0 mm 0.00 in0.0 mm
05:20 AM 62.2°F16.8°C 61.6°F16.4°C 98% 0.1 mph WSW0.2 kmh WSW -- 30.13 in1020.3 mb - 0.00 in0.0 mm 0.00 in0.0 mm
05:10 AM 62.2°F16.8°C 61.7°F16.5°C 98% 1.5 mph WSW2.4 kmh WSW 2.7 mph4.3 kmh 30.12 in1020.0 mb - 0.00 in0.0 mm 0.00 in0.0 mm
05:00 AM 61.7°F16.5°C 61.1°F16.2°C 98% 0.4 mph WSW0.6 kmh WSW 1.3 mph2.1 kmh 30.12 in1020.0 mb - 0.00 in0.0 mm 0.00 in0.0 mm
04:50 AM 61.9°F16.6°C 61.3°F16.3°C 98% Calm Calm -- 30.12 in1020.0 mb - 0.00 in0.0 mm 0.00 in0.0 mm
04:40 AM 62.4°F16.9°C 61.8°F16.6°C 98% Calm Calm -- 30.12 in1020.0 mb - 0.00 in0.0 mm 0.00 in0.0 mm
04:30 AM 62.4°F16.9°C 61.8°F16.6°C 98% Calm Calm -- 30.11 in1019.6 mb - 0.00 in0.0 mm 0.00 in0.0 mm
04:20 AM 62.3°F16.8°C 61.7°F16.5°C 98% Calm Calm -- 30.11 in1019.6 mb - 0.00 in0.0 mm 0.00 in0.0 mm
04:10 AM 62.1°F16.7°C 61.5°F16.4°C 98% Calm Calm -- 30.11 in1019.6 mb - 0.00 in0.0 mm 0.00 in0.0 mm
04:00 AM 62.7°F17.1°C 62.1°F16.7°C 98% Calm Calm -- 30.11 in1019.6 mb - 0.00 in0.0 mm 0.00 in0.0 mm
03:50 AM 63.0°F17.2°C 62.4°F16.9°C 98% Calm Calm -- 30.11 in1019.6 mb - 0.00 in0.0 mm 0.00 in0.0 mm
03:40 AM 63.3°F17.4°C 62.7°F17.1°C 98% Calm Calm -- 30.12 in1020.0 mb - 0.00 in0.0 mm 0.00 in0.0 mm
03:30 AM 63.5°F17.5°C 62.9°F17.2°C 98% 0.1 mph WSW0.2 kmh WSW -- 30.12 in1020.0 mb - 0.00 in0.0 mm 0.00 in0.0 mm
03:20 AM 63.7°F17.6°C 63.2°F17.3°C 98% Calm Calm -- 30.12 in1020.0 mb - 0.00 in0.0 mm 0.00 in0.0 mm
03:10 AM 64.1°F17.8°C 63.5°F17.5°C 98% Calm Calm -- 30.12 in1020.0 mb - 0.00 in0.0 mm 0.00 in0.0 mm
03:00 AM 64.3°F17.9°C 63.7°F17.6°C 98% Calm Calm -- 30.11 in1019.6 mb - 0.00 in0.0 mm 0.00 in0.0 mm
02:50 AM 64.3°F17.9°C 63.8°F17.7°C 98% Calm Calm -- 30.11 in1019.6 mb - 0.00 in0.0 mm 0.00 in0.0 mm
02:40 AM 64.6°F18.1°C 64.1°F17.8°C 98% Calm Calm -- 30.11 in1019.6 mb - 0.00 in0.0 mm 0.00 in0.0 mm
02:30 AM 64.9°F18.3°C 64.3°F17.9°C 98% Calm Calm -- 30.11 in1019.6 mb - 0.00 in0.0 mm 0.00 in0.0 mm
02:20 AM 64.9°F18.3°C 64.3°F17.9°C 98% Calm Calm -- 30.11 in1019.6 mb - 0.00 in0.0 mm 0.00 in0.0 mm
02:10 AM 65.2°F18.4°C 64.4°F18.0°C 97% Calm Calm -- 30.11 in1019.6 mb - 0.00 in0.0 mm 0.00 in0.0 mm
02:00 AM 65.7°F18.7°C 64.2°F17.9°C 95% Calm Calm -- 30.11 in1019.6 mb - 0.00 in0.0 mm 0.00 in0.0 mm
01:50 AM 66.2°F19.0°C 64.5°F18.1°C 94% Calm Calm -- 30.11 in1019.6 mb - 0.00 in0.0 mm 0.00 in0.0 mm
01:40 AM 66.9°F19.4°C 64.5°F18.1°C 92% Calm Calm -- 30.11 in1019.6 mb - 0.00 in0.0 mm 0.00 in0.0 mm
01:30 AM 67.6°F19.8°C 64.9°F18.3°C 91% Calm Calm -- 30.11 in1019.6 mb - 0.00 in0.0 mm 0.00 in0.0 mm
01:20 AM 68.0°F20.0°C 65.0°F18.3°C 90% Calm Calm -- 30.10 in1019.3 mb - 0.00 in0.0 mm 0.00 in0.0 mm
01:10 AM 68.3°F20.2°C 65.0°F18.3°C 89% Calm Calm -- 30.10 in1019.3 mb - 0.00 in0.0 mm 0.00 in0.0 mm
01:00 AM 68.8°F20.4°C 65.1°F18.4°C 88% Calm Calm -- 30.10 in1019.3 mb - 0.00 in0.0 mm 0.00 in0.0 mm
12:50 AM 68.5°F20.3°C 64.8°F18.2°C 88% 2.7 mph WNW4.3 kmh WNW 2.7 mph4.3 kmh 30.10 in1019.3 mb - 0.00 in0.0 mm 0.00 in0.0 mm
12:40 AM 69.1°F20.6°C 65.1°F18.4°C 87% Calm Calm -- 30.09 in1019.0 mb - 0.00 in0.0 mm 0.00 in0.0 mm
12:30 AM 70.0°F21.1°C 65.3°F18.5°C 85% Calm Calm -- 30.09 in1019.0 mb - 0.00 in0.0 mm 0.00 in0.0 mm
12:20 AM 70.3°F21.3°C 65.2°F18.4°C 84% Calm Calm -- 30.09 in1019.0 mb - 0.00 in0.0 mm 0.00 in0.0 mm
12:00 AM 69.8°F21.0°C 66.1°F18.9°C 88% Calm Calm -- 30.09 in1019.0 mb - 0.00 in0.0 mm 0.00 in0.0 mm